Time;durP1;ratioP1;P1;durP2;ratioP2;P2;SDS_P1;SDS_P2;PMS_P1;PMS_P2;Temp;Humidity;BMP_temperature;BMP_pressure;BME280_temperature;BME280_humidity;BME280_pressure;Samples;Min_cycle;Max_cycle;Signal;HPM_P1;HPM_P2
2022/04/10 00:00:43;;;;;;;1.27;0.50;;;;;;;;;;5043925;28;20037;-65
2022/04/10 00:03:08;;;;;;;1.60;0.60;;;;;;;;;;5036003;28;20037;-64
2022/04/10 00:05:34;;;;;;;1.63;0.60;;;;;;;;;;5034205;28;20036;-64
2022/04/10 00:07:59;;;;;;;2.07;0.60;;;;;;;;;;5049186;28;20021;-64
2022/04/10 00:10:24;;;;;;;1.87;0.40;;;;;;;;;;5051016;28;20017;-64
2022/04/10 00:12:49;;;;;;;1.93;0.50;;;;;;;;;;5047291;28;20017;-64
2022/04/10 00:15:15;;;;;;;2.40;0.60;;;;;;;;;;5050362;28;20077;-64
2022/04/10 00:17:40;;;;;;;3.13;0.50;;;;;;;;;;5050869;28;20032;-64
2022/04/10 00:20:06;;;;;;;1.00;0.50;;;;;;;;;;5044532;28;20021;-64
2022/04/10 00:22:31;;;;;;;2.03;0.50;;;;;;;;;;5034706;28;20516;-65
2022/04/10 00:24:56;;;;;;;3.17;0.40;;;;;;;;;;5053193;28;20059;-64
2022/04/10 00:27:21;;;;;;;1.27;0.40;;;;;;;;;;5049571;28;20127;-64
2022/04/10 00:29:47;;;;;;;1.20;0.40;;;;;;;;;;5040610;28;20374;-64
2022/04/10 00:32:12;;;;;;;1.60;0.40;;;;;;;;;;5039040;28;20105;-64
2022/04/10 00:34:37;;;;;;;2.07;0.40;;;;;;;;;;5047555;28;20040;-64
2022/04/10 00:37:02;;;;;;;0.97;0.40;;;;;;;;;;5061787;28;20032;-64
2022/04/10 00:39:28;;;;;;;0.80;0.30;;;;;;;;;;5058697;28;20147;-64
2022/04/10 00:41:53;;;;;;;1.73;0.40;;;;;;;;;;5054521;28;20082;-65
2022/04/10 00:44:18;;;;;;;0.80;0.50;;;;;;;;;;5053699;28;20496;-64
2022/04/10 00:46:44;;;;;;;1.10;0.30;;;;;;;;;;5069349;28;20064;-65
2022/04/10 00:49:09;;;;;;;1.20;0.20;;;;;;;;;;5053061;28;20346;-65
2022/04/10 00:51:40;;;;;;;2.10;0.23;;;;;;;;;;5053945;28;20104;-65
2022/04/10 00:54:09;;;;;;;1.07;0.30;;;;;;;;;;5053811;28;20017;-64
2022/04/10 00:56:35;;;;;;;2.37;0.50;;;;;;;;;;5037263;28;20394;-64
2022/04/10 00:59:01;;;;;;;1.37;0.30;;;;;;;;;;5038022;28;20046;-64
2022/04/10 01:01:27;;;;;;;1.60;0.50;;;;;;;;;;5051530;28;20028;-64
2022/04/10 01:03:52;;;;;;;1.67;0.43;;;;;;;;;;5053969;28;20032;-64
2022/04/10 01:06:18;;;;;;;2.50;0.20;;;;;;;;;;5049641;28;20040;-64
2022/04/10 01:08:43;;;;;;;1.43;0.37;;;;;;;;;;5041008;28;20028;-64
2022/04/10 01:11:08;;;;;;;2.70;0.40;;;;;;;;;;5063672;28;20017;-64
2022/04/10 01:13:33;;;;;;;1.40;0.23;;;;;;;;;;5050193;28;20082;-64
2022/04/10 01:15:58;;;;;;;0.93;0.20;;;;;;;;;;5052452;28;20025;-64
2022/04/10 01:18:25;;;;;;;2.83;0.40;;;;;;;;;;5048960;28;20108;-64
2022/04/10 01:20:50;;;;;;;3.10;0.23;;;;;;;;;;5049615;28;20029;-65
2022/04/10 01:23:16;;;;;;;1.47;0.20;;;;;;;;;;5047347;28;20018;-64
2022/04/10 01:25:41;;;;;;;3.13;0.50;;;;;;;;;;5033076;28;20039;-64
2022/04/10 01:28:10;;;;;;;1.73;0.20;;;;;;;;;;5047261;28;20104;-65
2022/04/10 01:30:35;;;;;;;0.90;0.50;;;;;;;;;;5035908;28;20025;-65
2022/04/10 01:33:01;;;;;;;1.23;0.30;;;;;;;;;;5046063;28;20351;-65
2022/04/10 01:35:27;;;;;;;2.27;0.50;;;;;;;;;;5054650;28;20048;-65
2022/04/10 01:37:53;;;;;;;0.97;0.20;;;;;;;;;;5053804;28;20031;-65
2022/04/10 01:40:19;;;;;;;0.90;0.20;;;;;;;;;;5051474;28;20028;-65
2022/04/10 01:42:44;;;;;;;2.00;0.30;;;;;;;;;;5073291;28;20029;-65
2022/04/10 01:45:09;;;;;;;2.43;0.30;;;;;;;;;;5068537;28;20036;-65
2022/04/10 01:47:34;;;;;;;2.47;0.30;;;;;;;;;;5063212;28;20036;-65
2022/04/10 01:49:59;;;;;;;4.30;0.50;;;;;;;;;;5051510;28;20031;-65
2022/04/10 01:52:25;;;;;;;3.27;0.37;;;;;;;;;;5053107;28;20032;-65
2022/04/10 01:54:51;;;;;;;1.27;0.50;;;;;;;;;;5051067;28;20064;-65
2022/04/10 01:57:17;;;;;;;3.27;0.30;;;;;;;;;;5046506;28;20491;-65
2022/04/10 01:59:42;;;;;;;2.67;0.40;;;;;;;;;;5049767;28;20159;-64
2022/04/10 02:02:07;;;;;;;2.00;0.43;;;;;;;;;;5050180;28;20025;-64
2022/04/10 02:04:33;;;;;;;3.67;0.40;;;;;;;;;;5051318;28;20540;-65
2022/04/10 02:06:58;;;;;;;2.87;0.33;;;;;;;;;;5050781;28;20029;-64
2022/04/10 02:09:23;;;;;;;1.83;0.40;;;;;;;;;;5052476;28;20028;-64
2022/04/10 02:11:49;;;;;;;3.20;0.50;;;;;;;;;;5047621;28;20083;-64
2022/04/10 02:14:15;;;;;;;2.83;0.30;;;;;;;;;;5046109;28;20066;-65
2022/04/10 02:16:40;;;;;;;2.07;0.30;;;;;;;;;;5050913;28;20563;-65
2022/04/10 02:19:05;;;;;;;3.30;0.60;;;;;;;;;;5050745;28;20074;-65
2022/04/10 02:21:31;;;;;;;2.53;0.20;;;;;;;;;;5052552;28;20036;-64
2022/04/10 02:23:56;;;;;;;2.67;0.40;;;;;;;;;;5047325;28;20385;-65
2022/04/10 02:26:21;;;;;;;3.60;0.30;;;;;;;;;;5032738;28;20029;-65
2022/04/10 02:28:47;;;;;;;3.20;0.30;;;;;;;;;;5043436;28;20021;-65
2022/04/10 02:31:12;;;;;;;2.90;0.23;;;;;;;;;;5038648;28;20087;-64
2022/04/10 02:33:37;;;;;;;1.57;0.20;;;;;;;;;;5050558;28;20025;-65
2022/04/10 02:36:03;;;;;;;2.37;0.30;;;;;;;;;;5047967;28;20024;-65
2022/04/10 02:38:28;;;;;;;2.10;0.30;;;;;;;;;;5033693;28;20105;-65
2022/04/10 02:40:53;;;;;;;3.20;0.30;;;;;;;;;;5059304;28;20053;-65
2022/04/10 02:43:19;;;;;;;2.17;0.40;;;;;;;;;;5051212;28;20059;-64
2022/04/10 02:45:44;;;;;;;5.60;0.60;;;;;;;;;;5033551;28;20041;-64
2022/04/10 02:48:10;;;;;;;3.17;0.30;;;;;;;;;;5046253;28;20056;-65
2022/04/10 02:50:36;;;;;;;0.97;0.20;;;;;;;;;;5049566;28;20052;-65
2022/04/10 02:53:01;;;;;;;3.10;0.30;;;;;;;;;;5051948;28;20023;-65
2022/04/10 02:55:27;;;;;;;3.10;0.50;;;;;;;;;;5051844;28;20029;-64
2022/04/10 02:57:52;;;;;;;0.77;0.30;;;;;;;;;;5047079;28;20161;-64
2022/04/10 03:00:17;;;;;;;1.60;0.20;;;;;;;;;;5040300;28;20098;-64
2022/04/10 03:02:42;;;;;;;1.23;0.20;;;;;;;;;;5052523;28;20029;-65
2022/04/10 03:05:08;;;;;;;3.07;0.30;;;;;;;;;;5051344;28;20021;-65
2022/04/10 03:07:33;;;;;;;4.30;0.50;;;;;;;;;;5042073;28;20379;-64
2022/04/10 03:09:58;;;;;;;3.43;0.40;;;;;;;;;;5050080;28;20048;-64
2022/04/10 03:12:24;;;;;;;0.97;0.27;;;;;;;;;;5030492;28;20120;-64
2022/04/10 03:14:49;;;;;;;3.50;0.47;;;;;;;;;;5037950;28;20033;-64
2022/04/10 03:17:14;;;;;;;1.80;0.20;;;;;;;;;;5051209;28;20025;-65
2022/04/10 03:19:39;;;;;;;1.43;0.30;;;;;;;;;;5054768;28;20481;-65
2022/04/10 03:22:05;;;;;;;4.53;0.60;;;;;;;;;;5068874;28;20032;-63
2022/04/10 03:24:30;;;;;;;3.40;0.37;;;;;;;;;;5045096;28;20449;-65
2022/04/10 03:26:55;;;;;;;2.80;0.30;;;;;;;;;;5032178;28;20031;-65
2022/04/10 03:29:21;;;;;;;3.40;0.30;;;;;;;;;;5048537;28;20029;-65
2022/04/10 03:31:46;;;;;;;1.77;0.30;;;;;;;;;;5047713;28;20037;-65
2022/04/10 03:34:11;;;;;;;2.47;0.30;;;;;;;;;;5045712;28;20028;-65
2022/04/10 03:36:36;;;;;;;3.03;0.40;;;;;;;;;;5050463;28;20488;-65
2022/04/10 03:39:01;;;;;;;1.53;0.30;;;;;;;;;;5051441;28;20504;-65
2022/04/10 03:41:27;;;;;;;1.23;0.43;;;;;;;;;;5046830;28;20060;-65
2022/04/10 03:43:52;;;;;;;1.63;0.30;;;;;;;;;;5049643;28;20033;-64
2022/04/10 03:46:17;;;;;;;2.80;0.43;;;;;;;;;;5050548;28;20029;-65
2022/04/10 03:48:42;;;;;;;3.57;0.43;;;;;;;;;;5050860;28;20503;-65
2022/04/10 03:51:07;;;;;;;3.53;0.40;;;;;;;;;;5051057;28;20404;-65
2022/04/10 03:53:33;;;;;;;2.43;0.53;;;;;;;;;;5054198;28;20480;-65
2022/04/10 03:55:58;;;;;;;3.43;0.40;;;;;;;;;;5051059;28;20493;-65
2022/04/10 03:58:24;;;;;;;2.10;0.40;;;;;;;;;;5046963;28;20124;-64
2022/04/10 04:00:49;;;;;;;2.17;0.40;;;;;;;;;;5047939;28;20060;-65
2022/04/10 04:03:15;;;;;;;2.53;0.50;;;;;;;;;;5055065;28;20056;-65
2022/04/10 04:05:40;;;;;;;2.40;0.30;;;;;;;;;;5051700;28;20040;-65
2022/04/10 04:08:05;;;;;;;2.33;0.40;;;;;;;;;;5045757;28;20389;-65
2022/04/10 04:10:32;;;;;;;3.07;0.30;;;;;;;;;;5054053;28;20021;-65
2022/04/10 04:12:58;;;;;;;1.23;0.40;;;;;;;;;;5054737;28;20025;-65
2022/04/10 04:15:23;;;;;;;3.03;0.40;;;;;;;;;;5046809;28;20520;-65
2022/04/10 04:17:49;;;;;;;3.73;0.50;;;;;;;;;;5054640;28;20116;-64
2022/04/10 04:20:14;;;;;;;2.47;0.30;;;;;;;;;;5053330;28;20115;-65
2022/04/10 04:22:39;;;;;;;1.80;0.30;;;;;;;;;;5053255;28;20032;-65
2022/04/10 04:25:06;;;;;;;1.40;0.60;;;;;;;;;;5043396;28;20111;-65
2022/04/10 04:27:31;;;;;;;2.20;0.40;;;;;;;;;;5051285;28;20037;-65
2022/04/10 04:29:56;;;;;;;2.70;0.27;;;;;;;;;;5048614;28;20394;-65
2022/04/10 04:32:21;;;;;;;2.00;0.30;;;;;;;;;;5052329;28;20116;-65
2022/04/10 04:34:47;;;;;;;2.70;0.50;;;;;;;;;;5051240;28;20029;-65
2022/04/10 04:37:12;;;;;;;4.33;0.43;;;;;;;;;;5045233;28;20029;-65
2022/04/10 04:39:38;;;;;;;2.80;0.40;;;;;;;;;;5039222;28;20386;-65
2022/04/10 04:42:03;;;;;;;2.83;0.60;;;;;;;;;;5060320;28;20516;-65
2022/04/10 04:44:30;;;;;;;2.67;0.40;;;;;;;;;;5054307;28;20029;-64
2022/04/10 04:46:56;;;;;;;2.30;0.33;;;;;;;;;;5065949;28;20032;-65
2022/04/10 04:49:21;;;;;;;2.20;0.30;;;;;;;;;;5054256;28;20036;-65
2022/04/10 04:51:46;;;;;;;1.20;0.30;;;;;;;;;;5046419;28;20025;-64
2022/04/10 04:54:11;;;;;;;3.37;0.40;;;;;;;;;;5054041;28;20029;-65
2022/04/10 04:56:37;;;;;;;2.40;0.80;;;;;;;;;;5060019;28;20178;-64
2022/04/10 04:59:02;;;;;;;2.17;0.50;;;;;;;;;;5046688;28;20094;-65
2022/04/10 05:01:27;;;;;;;2.07;0.57;;;;;;;;;;5053271;28;20025;-65
2022/04/10 05:03:53;;;;;;;1.17;0.30;;;;;;;;;;5054130;28;20017;-65
2022/04/10 05:06:18;;;;;;;3.93;0.67;;;;;;;;;;5041068;28;20121;-64
2022/04/10 05:08:46;;;;;;;4.07;0.87;;;;;;;;;;5037586;28;20013;-64
2022/04/10 05:11:11;;;;;;;2.70;0.70;;;;;;;;;;5053740;28;20032;-64
2022/04/10 05:13:37;;;;;;;6.17;1.33;;;;;;;;;;5057820;28;20025;-64
2022/04/10 05:16:02;;;;;;;2.63;0.40;;;;;;;;;;5049179;28;20033;-64
2022/04/10 05:18:27;;;;;;;2.00;0.50;;;;;;;;;;5052316;28;20120;-63
2022/04/10 05:20:52;;;;;;;2.70;0.40;;;;;;;;;;5056501;28;20024;-63
2022/04/10 05:23:18;;;;;;;2.40;0.67;;;;;;;;;;5053462;28;20112;-64
2022/04/10 05:25:44;;;;;;;4.83;0.70;;;;;;;;;;5048878;28;20056;-64
2022/04/10 05:28:09;;;;;;;1.30;0.50;;;;;;;;;;5044342;28;20095;-64
2022/04/10 05:30:34;;;;;;;2.20;0.33;;;;;;;;;;5036229;28;20462;-64
2022/04/10 05:33:00;;;;;;;2.43;0.40;;;;;;;;;;5042903;28;20029;-64
2022/04/10 05:35:25;;;;;;;2.17;0.47;;;;;;;;;;5053117;28;20021;-64
2022/04/10 05:37:50;;;;;;;1.37;0.50;;;;;;;;;;5053684;28;20029;-63
2022/04/10 05:40:16;;;;;;;2.13;0.47;;;;;;;;;;5056032;28;20025;-63
2022/04/10 05:42:45;;;;;;;3.37;0.50;;;;;;;;;;5060999;28;20103;-64
2022/04/10 05:45:10;;;;;;;1.73;0.50;;;;;;;;;;5048366;28;20025;-64
2022/04/10 05:47:36;;;;;;;5.33;0.77;;;;;;;;;;5047262;28;20031;-65
2022/04/10 05:50:02;;;;;;;2.30;0.47;;;;;;;;;;5049074;28;20025;-64
2022/04/10 05:52:27;;;;;;;4.00;0.50;;;;;;;;;;5050599;28;20392;-65
2022/04/10 05:54:52;;;;;;;4.33;0.43;;;;;;;;;;5052484;28;20462;-65
2022/04/10 05:57:17;;;;;;;1.93;0.70;;;;;;;;;;5045213;28;20026;-64
2022/04/10 05:59:43;;;;;;;3.73;0.70;;;;;;;;;;5043131;28;20171;-64
2022/04/10 06:02:08;;;;;;;2.20;0.90;;;;;;;;;;5047561;28;20025;-64
2022/04/10 06:04:33;;;;;;;4.23;0.67;;;;;;;;;;5050734;28;20707;-63
2022/04/10 06:06:58;;;;;;;3.13;0.90;;;;;;;;;;5049026;28;20048;-65
2022/04/10 06:09:24;;;;;;;2.10;0.43;;;;;;;;;;5050890;28;20017;-65
2022/04/10 06:11:49;;;;;;;1.80;0.73;;;;;;;;;;5046238;28;20017;-64
2022/04/10 06:14:14;;;;;;;4.63;1.00;;;;;;;;;;5046369;28;20537;-65
2022/04/10 06:16:39;;;;;;;2.33;0.70;;;;;;;;;;5047420;28;20073;-64
2022/04/10 06:19:04;;;;;;;1.92;0.60;;;;;;;;;;5051211;28;20028;-65
2022/04/10 06:21:30;;;;;;;2.90;0.80;;;;;;;;;;5051023;28;20032;-64
2022/04/10 06:23:55;;;;;;;1.77;0.60;;;;;;;;;;5052103;28;20025;-63
2022/04/10 06:26:20;;;;;;;4.47;0.60;;;;;;;;;;5051727;28;20031;-63
2022/04/10 06:28:45;;;;;;;1.67;0.57;;;;;;;;;;5036212;28;20110;-63
2022/04/10 06:31:10;;;;;;;3.17;0.63;;;;;;;;;;5043457;28;20025;-64
2022/04/10 06:33:36;;;;;;;4.07;0.90;;;;;;;;;;5050708;28;20067;-63
2022/04/10 06:36:01;;;;;;;2.73;1.00;;;;;;;;;;5050958;28;20432;-64
2022/04/10 06:38:26;;;;;;;4.95;1.15;;;;;;;;;;5049268;28;20450;-64
2022/04/10 06:40:51;;;;;;;4.18;1.00;;;;;;;;;;5048500;28;20031;-64
2022/04/10 06:43:17;;;;;;;3.15;1.25;;;;;;;;;;5053784;28;20062;-63
2022/04/10 06:45:42;;;;;;;2.80;1.13;;;;;;;;;;5047849;28;20076;-64
2022/04/10 06:48:08;;;;;;;3.75;1.00;;;;;;;;;;5033202;28;20074;-63
2022/04/10 06:50:33;;;;;;;4.87;1.00;;;;;;;;;;5048325;28;20075;-65
2022/04/10 06:52:58;;;;;;;5.28;1.33;;;;;;;;;;5049510;28;20082;-64
2022/04/10 06:55:26;;;;;;;1.83;1.02;;;;;;;;;;5051274;28;20490;-66
2022/04/10 06:57:51;;;;;;;3.10;0.70;;;;;;;;;;5038033;28;20029;-63
2022/04/10 07:00:16;;;;;;;4.28;1.35;;;;;;;;;;5045959;28;20517;-64
2022/04/10 07:02:41;;;;;;;4.38;0.95;;;;;;;;;;5050604;28;20065;-64
2022/04/10 07:05:07;;;;;;;5.57;1.20;;;;;;;;;;5051019;28;20307;-64
2022/04/10 07:07:32;;;;;;;3.10;0.70;;;;;;;;;;5049220;28;20051;-64
2022/04/10 07:09:59;;;;;;;4.10;0.50;;;;;;;;;;5050775;28;20023;-65
2022/04/10 07:12:24;;;;;;;1.42;0.45;;;;;;;;;;5045992;28;20100;-64
2022/04/10 07:14:50;;;;;;;4.43;0.47;;;;;;;;;;5050396;28;20155;-66
2022/04/10 07:17:15;;;;;;;3.17;0.90;;;;;;;;;;5047459;28;20021;-65
2022/04/10 07:19:40;;;;;;;2.75;0.52;;;;;;;;;;5029039;28;20033;-64
2022/04/10 07:24:49;;;;;;;2.83;0.73;;;;;;;;;;5049075;28;20075;-64
2022/04/10 07:27:14;;;;;;;3.33;0.63;;;;;;;;;;5025565;28;20441;-65
2022/04/10 07:29:40;;;;;;;2.53;0.52;;;;;;;;;;5045824;28;20025;-65
2022/04/10 07:32:05;;;;;;;2.78;0.73;;;;;;;;;;5037350;28;20104;-66
2022/04/10 07:34:31;;;;;;;5.72;0.60;;;;;;;;;;5038673;28;20135;-65
2022/04/10 07:36:56;;;;;;;5.18;0.95;;;;;;;;;;5046379;28;20473;-66
2022/04/10 07:39:21;;;;;;;3.40;0.50;;;;;;;;;;5048058;28;20033;-65
2022/04/10 07:41:46;;;;;;;6.72;0.68;;;;;;;;;;5050383;28;20033;-65
2022/04/10 07:44:12;;;;;;;5.05;0.77;;;;;;;;;;5050191;28;20053;-65
2022/04/10 07:49:21;;;;;;;2.45;0.50;;;;;;;;;;5039455;28;20071;-65
2022/04/10 07:51:46;;;;;;;4.32;0.57;;;;;;;;;;5048690;28;20025;-65
2022/04/10 07:54:11;;;;;;;2.67;0.60;;;;;;;;;;5038819;28;20021;-64
2022/04/10 07:56:36;;;;;;;2.05;0.70;;;;;;;;;;5043833;28;20446;-65
2022/04/10 07:59:01;;;;;;;3.13;0.63;;;;;;;;;;5034539;28;20498;-65
2022/04/10 08:01:27;;;;;;;3.67;0.50;;;;;;;;;;5037539;28;20120;-65
2022/04/10 08:03:53;;;;;;;3.55;0.50;;;;;;;;;;5039137;28;20031;-64
2022/04/10 08:06:18;;;;;;;4.28;0.57;;;;;;;;;;5044442;28;20028;-65
2022/04/10 08:08:44;;;;;;;2.75;0.60;;;;;;;;;;5044167;28;20479;-64
2022/04/10 08:11:09;;;;;;;3.55;0.45;;;;;;;;;;5048952;28;20412;-65
2022/04/10 08:13:34;;;;;;;2.83;0.40;;;;;;;;;;5049296;28;20440;-64
2022/04/10 08:15:59;;;;;;;3.10;0.70;;;;;;;;;;5042282;28;20396;-65
2022/04/10 08:18:24;;;;;;;2.78;0.63;;;;;;;;;;5036890;28;20036;-66
2022/04/10 08:20:51;;;;;;;5.22;0.50;;;;;;;;;;5037583;28;20025;-65
2022/04/10 08:23:17;;;;;;;2.90;0.40;;;;;;;;;;5040594;28;20024;-66
2022/04/10 08:25:42;;;;;;;3.60;0.43;;;;;;;;;;5038259;28;20389;-66
2022/04/10 08:28:07;;;;;;;2.95;0.40;;;;;;;;;;5023292;28;20025;-65
2022/04/10 08:30:32;;;;;;;2.15;0.40;;;;;;;;;;5045413;28;20462;-66
2022/04/10 08:32:58;;;;;;;5.60;0.50;;;;;;;;;;5032434;28;20013;-65
2022/04/10 08:35:23;;;;;;;1.95;0.50;;;;;;;;;;5041032;28;20529;-65
2022/04/10 08:37:49;;;;;;;4.35;0.55;;;;;;;;;;5041167;28;20036;-66
2022/04/10 08:40:14;;;;;;;4.10;0.40;;;;;;;;;;5045684;28;20496;-66
2022/04/10 08:42:39;;;;;;;3.05;0.40;;;;;;;;;;5032790;28;20029;-65
2022/04/10 08:45:08;;;;;;;3.30;0.75;;;;;;;;;;5041762;28;20033;-66
2022/04/10 08:47:34;;;;;;;9.27;0.73;;;;;;;;;;5034391;28;20407;-65
2022/04/10 08:50:00;;;;;;;3.38;0.80;;;;;;;;;;5051404;28;20490;-65
2022/04/10 08:52:26;;;;;;;2.85;0.40;;;;;;;;;;5048382;28;20363;-66
2022/04/10 08:54:51;;;;;;;2.13;0.45;;;;;;;;;;5034948;28;20037;-66
2022/04/10 08:57:16;;;;;;;3.10;0.80;;;;;;;;;;5033756;28;20473;-66
2022/04/10 08:59:42;;;;;;;3.20;0.38;;;;;;;;;;5038496;28;20410;-66
2022/04/10 09:02:07;;;;;;;1.52;0.40;;;;;;;;;;5043529;28;20033;-65
2022/04/10 09:04:32;;;;;;;5.20;0.60;;;;;;;;;;5046506;28;20033;-65
2022/04/10 09:07:05;;;;;;;1.63;0.40;;;;;;;;;;5044417;28;20343;-66
2022/04/10 09:09:31;;;;;;;5.20;0.57;;;;;;;;;;5045129;28;20021;-65
2022/04/10 09:11:56;;;;;;;1.85;0.40;;;;;;;;;;5051217;28;20028;-65
2022/04/10 09:14:23;;;;;;;2.58;0.88;;;;;;;;;;5046735;28;20438;-66
2022/04/10 09:17:06;;;;;;;3.85;0.60;;;;;;;;;;5038838;28;20051;-66
2022/04/10 09:19:35;;;;;;;4.18;0.40;;;;;;;;;;5039637;28;20056;-67
2022/04/10 09:22:18;;;;;;;8.60;0.68;;;;;;;;;;5040252;28;20489;-65
2022/04/10 09:25:02;;;;;;;4.38;0.47;;;;;;;;;;5037834;28;20432;-65
2022/04/10 09:27:31;;;;;;;4.20;0.47;;;;;;;;;;5044503;28;20442;-66
2022/04/10 09:29:57;;;;;;;2.50;0.50;;;;;;;;;;5043138;28;20055;-66
2022/04/10 09:32:22;;;;;;;3.72;0.50;;;;;;;;;;5044559;28;20022;-66
2022/04/10 09:34:57;;;;;;;4.55;0.50;;;;;;;;;;5025753;28;20028;-66
2022/04/10 09:37:22;;;;;;;4.68;0.60;;;;;;;;;;5040066;28;20061;-66
2022/04/10 09:39:47;;;;;;;3.53;0.90;;;;;;;;;;5042189;28;20063;-65
2022/04/10 09:42:14;;;;;;;2.70;0.32;;;;;;;;;;5040007;28;20078;-65
2022/04/10 09:44:40;;;;;;;4.40;0.60;;;;;;;;;;5047601;28;20393;-65
2022/04/10 09:47:06;;;;;;;2.17;0.40;;;;;;;;;;5039771;28;20025;-66
2022/04/10 09:49:32;;;;;;;2.63;0.38;;;;;;;;;;5036638;28;20066;-65
2022/04/10 09:52:00;;;;;;;2.80;0.75;;;;;;;;;;5041736;28;20026;-65
2022/04/10 09:54:31;;;;;;;2.50;0.88;;;;;;;;;;5042638;28;20051;-64
2022/04/10 09:56:57;;;;;;;8.57;1.65;;;;;;;;;;5037482;28;20036;-65
2022/04/10 09:59:24;;;;;;;3.05;0.68;;;;;;;;;;5041150;28;20537;-64
2022/04/10 10:01:49;;;;;;;5.22;0.60;;;;;;;;;;5043575;28;20111;-65
2022/04/10 10:04:15;;;;;;;4.95;0.90;;;;;;;;;;5036415;28;20121;-65
2022/04/10 10:06:41;;;;;;;5.80;0.60;;;;;;;;;;5046295;28;20033;-65
2022/04/10 10:09:07;;;;;;;3.38;0.70;;;;;;;;;;5044851;28;20030;-65
2022/04/10 10:11:34;;;;;;;4.68;0.70;;;;;;;;;;5041791;28;20136;-65
2022/04/10 10:13:59;;;;;;;4.70;0.68;;;;;;;;;;5041043;28;20147;-65
2022/04/10 10:16:25;;;;;;;5.95;1.15;;;;;;;;;;5051296;28;20719;-65
2022/04/10 10:18:50;;;;;;;4.68;0.63;;;;;;;;;;5040462;28;20029;-65
2022/04/10 10:21:16;;;;;;;3.70;0.70;;;;;;;;;;5052362;28;20033;-65
2022/04/10 10:23:45;;;;;;;4.25;0.75;;;;;;;;;;5036070;28;20091;-65
2022/04/10 10:26:18;;;;;;;1.58;0.30;;;;;;;;;;5045134;28;20029;-65
2022/04/10 10:28:56;;;;;;;2.92;0.47;;;;;;;;;;5051082;28;20020;-66
2022/04/10 10:31:39;;;;;;;4.32;0.60;;;;;;;;;;5049299;28;20412;-67
2022/04/10 10:34:06;;;;;;;5.75;1.67;;;;;;;;;;5036121;28;20430;-66
2022/04/10 10:36:31;;;;;;;3.30;0.68;;;;;;;;;;5053067;28;20075;-65
2022/04/10 10:38:57;;;;;;;2.05;0.57;;;;;;;;;;5048982;28;20024;-65
2022/04/10 10:41:22;;;;;;;3.28;0.70;;;;;;;;;;5044987;28;20176;-66
2022/04/10 10:43:48;;;;;;;6.20;0.65;;;;;;;;;;5033544;28;20382;-66
2022/04/10 10:46:32;;;;;;;3.08;0.73;;;;;;;;;;5040873;28;20029;-68
2022/04/10 10:49:18;;;;;;;2.17;0.50;;;;;;;;;;5054831;28;20661;-67
2022/04/10 10:51:43;;;;;;;;;;;;;;;;;;5023762;28;20031;-67
2022/04/10 10:54:11;;;;;;;2.78;0.40;;;;;;;;;;5044382;28;19908;-67
2022/04/10 10:56:37;;;;;;;2.38;0.50;;;;;;;;;;5046211;28;20031;-67
2022/04/10 10:59:24;;;;;;;3.22;0.40;;;;;;;;;;5031994;28;20404;-67
2022/04/10 11:02:10;;;;;;;2.08;0.43;;;;;;;;;;5052529;28;20509;-68
2022/04/10 11:04:35;;;;;;;;;;;;;;;;;;5044314;28;20044;-67
2022/04/10 11:07:13;;;;;;;1.60;0.27;;;;;;;;;;5047507;28;20304;-67
2022/04/10 11:09:58;;;;;;;4.85;0.50;;;;;;;;;;5037608;28;20263;-66
2022/04/10 11:12:45;;;;;;;2.75;0.60;;;;;;;;;;5053435;28;20040;-66
2022/04/10 11:15:18;;;;;;;5.15;0.47;;;;;;;;;;5038145;28;20090;-66
2022/04/10 11:17:44;;;;;;;4.18;0.43;;;;;;;;;;5044142;28;20056;-66
2022/04/10 11:20:11;;;;;;;5.30;0.60;;;;;;;;;;5045795;28;20130;-77
2022/04/10 11:22:39;;;;;;;3.60;0.55;;;;;;;;;;5044725;28;20378;-77
2022/04/10 11:25:06;;;;;;;1.67;0.60;;;;;;;;;;5050434;28;20493;-74
2022/04/10 11:27:50;;;;;;;2.83;0.55;;;;;;;;;;5041283;28;20047;-78
2022/04/10 11:30:20;;;;;;;3.75;0.45;;;;;;;;;;5041851;28;20025;-77
2022/04/10 11:32:48;;;;;;;2.95;0.35;;;;;;;;;;5046186;28;20108;-76
2022/04/10 11:35:18;;;;;;;3.08;0.38;;;;;;;;;;5048754;28;20032;-76
2022/04/10 11:37:46;;;;;;;2.38;0.40;;;;;;;;;;5044731;28;20486;-76
2022/04/10 11:40:12;;;;;;;1.27;0.43;;;;;;;;;;5047019;28;20025;-70
2022/04/10 11:42:37;;;;;;;2.45;0.25;;;;;;;;;;5048968;28;20036;-68
2022/04/10 11:45:03;;;;;;;1.98;0.20;;;;;;;;;;5057642;28;20028;-68
2022/04/10 11:47:28;;;;;;;2.28;0.45;;;;;;;;;;5053543;28;20456;-67
2022/04/10 11:49:54;;;;;;;1.23;0.50;;;;;;;;;;5048546;28;20047;-67
2022/04/10 11:52:19;;;;;;;2.50;0.32;;;;;;;;;;5043268;28;20033;-68
2022/04/10 11:54:45;;;;;;;1.55;0.17;;;;;;;;;;5047346;28;20560;-69
2022/04/10 11:57:10;;;;;;;2.03;0.63;;;;;;;;;;5037329;28;20032;-68
2022/04/10 11:59:36;;;;;;;0.60;0.20;;;;;;;;;;5037024;28;20521;-70
2022/04/10 12:02:03;;;;;;;2.22;0.28;;;;;;;;;;5037232;28;20033;-68
2022/04/10 12:04:29;;;;;;;0.77;0.22;;;;;;;;;;5036240;28;20025;-69
2022/04/10 12:07:09;;;;;;;2.00;0.30;;;;;;;;;;5053862;28;20029;-68
2022/04/10 12:09:34;;;;;;;1.20;0.28;;;;;;;;;;5042733;28;20017;-67
2022/04/10 12:11:59;;;;;;;1.80;0.30;;;;;;;;;;5044785;28;20021;-67
2022/04/10 12:14:25;;;;;;;2.10;0.40;;;;;;;;;;5042119;28;20036;-68
2022/04/10 12:16:52;;;;;;;0.77;0.30;;;;;;;;;;5034832;28;20029;-67
2022/04/10 12:19:28;;;;;;;1.60;0.40;;;;;;;;;;5047500;28;20024;-69
2022/04/10 12:21:53;;;;;;;1.90;0.38;;;;;;;;;;5044964;28;20016;-68
2022/04/10 12:24:22;;;;;;;1.95;0.30;;;;;;;;;;5031790;28;20028;-67
2022/04/10 12:26:48;;;;;;;0.85;0.30;;;;;;;;;;5053804;28;20251;-69
2022/04/10 12:29:13;;;;;;;2.00;0.40;;;;;;;;;;5043745;28;20373;-68
2022/04/10 12:31:41;;;;;;;1.92;0.38;;;;;;;;;;5044549;28;20090;-68
2022/04/10 12:34:07;;;;;;;1.65;0.38;;;;;;;;;;5048789;28;20108;-68
2022/04/10 12:36:32;;;;;;;1.52;0.28;;;;;;;;;;5044083;28;20107;-71
2022/04/10 12:39:00;;;;;;;0.80;0.28;;;;;;;;;;5052593;28;20067;-70
2022/04/10 12:41:32;;;;;;;1.25;0.20;;;;;;;;;;5054383;28;20032;-67
2022/04/10 12:44:01;;;;;;;3.00;0.60;;;;;;;;;;5036685;28;20036;-67
2022/04/10 12:46:32;;;;;;;1.75;0.40;;;;;;;;;;5050435;28;20435;-67
2022/04/10 12:49:27;;;;;;;2.97;0.47;;;;;;;;;;5064665;28;20021;-66
2022/04/10 12:51:53;;;;;;;2.38;0.38;;;;;;;;;;5053995;28;20029;-68
2022/04/10 12:54:19;;;;;;;3.22;0.73;;;;;;;;;;5044564;28;20049;-66
2022/04/10 12:56:44;;;;;;;2.83;0.70;;;;;;;;;;5058219;28;20126;-66
2022/04/10 12:59:09;;;;;;;2.13;0.43;;;;;;;;;;5047618;28;20076;-67
2022/04/10 13:01:35;;;;;;;1.20;0.38;;;;;;;;;;5033618;28;20128;-66
2022/04/10 13:04:01;;;;;;;1.08;0.38;;;;;;;;;;5040597;28;20025;-67
2022/04/10 13:06:53;;;;;;;1.98;0.20;;;;;;;;;;5050588;28;20021;-66
2022/04/10 13:09:18;;;;;;;0.65;0.40;;;;;;;;;;5052378;28;20087;-66
2022/04/10 13:11:43;;;;;;;0.82;0.30;;;;;;;;;;5054070;28;20021;-65
2022/04/10 13:14:11;;;;;;;1.45;0.50;;;;;;;;;;5051304;28;20127;-64
2022/04/10 13:16:37;;;;;;;1.65;0.32;;;;;;;;;;5067998;28;20542;-65
2022/04/10 13:19:03;;;;;;;1.60;0.40;;;;;;;;;;5057081;28;20484;-65
2022/04/10 13:21:28;;;;;;;1.48;0.28;;;;;;;;;;5053386;28;20021;-65
2022/04/10 13:23:53;;;;;;;0.82;0.10;;;;;;;;;;5063396;28;20464;-65
2022/04/10 13:26:25;;;;;;;2.17;0.20;;;;;;;;;;5066725;28;20477;-65
2022/04/10 13:28:50;;;;;;;4.00;0.30;;;;;;;;;;5050697;28;20280;-65
2022/04/10 13:31:17;;;;;;;0.43;0.10;;;;;;;;;;5048017;28;20021;-64
2022/04/10 13:33:42;;;;;;;2.85;0.28;;;;;;;;;;5048124;28;20100;-64
2022/04/10 13:36:07;;;;;;;0.32;0.17;;;;;;;;;;5057930;28;20029;-65
2022/04/10 13:38:32;;;;;;;1.25;0.10;;;;;;;;;;5057897;28;20031;-65
2022/04/10 13:40:57;;;;;;;1.45;0.15;;;;;;;;;;5069106;28;20111;-63
2022/04/10 13:43:23;;;;;;;1.52;0.30;;;;;;;;;;5052683;28;20398;-64
2022/04/10 13:45:49;;;;;;;0.90;0.28;;;;;;;;;;5053675;28;20029;-63
2022/04/10 13:48:14;;;;;;;1.45;0.20;;;;;;;;;;5051884;28;20021;-64
2022/04/10 13:50:39;;;;;;;0.75;0.20;;;;;;;;;;5072856;28;20143;-64
2022/04/10 13:53:04;;;;;;;2.92;0.30;;;;;;;;;;5065582;28;20043;-63
2022/04/10 13:55:29;;;;;;;2.78;1.05;;;;;;;;;;5053711;28;20390;-64
2022/04/10 13:57:55;;;;;;;3.27;0.47;;;;;;;;;;5046143;28;22274;-65
2022/04/10 14:00:20;;;;;;;1.00;0.20;;;;;;;;;;5034694;28;20296;-63
2022/04/10 14:02:45;;;;;;;1.27;0.30;;;;;;;;;;5059168;28;20029;-63
2022/04/10 14:05:10;;;;;;;0.95;0.20;;;;;;;;;;5052084;28;20086;-65
2022/04/10 14:07:35;;;;;;;0.98;0.20;;;;;;;;;;5057553;28;20039;-64
2022/04/10 14:10:02;;;;;;;2.85;0.57;;;;;;;;;;5060275;28;20107;-64
2022/04/10 14:12:28;;;;;;;0.88;0.10;;;;;;;;;;5054346;28;20020;-64
2022/04/10 14:14:54;;;;;;;2.15;0.20;;;;;;;;;;5047485;28;20017;-64
2022/04/10 14:17:19;;;;;;;2.05;0.20;;;;;;;;;;5032439;28;20033;-63
2022/04/10 14:19:45;;;;;;;0.70;0.20;;;;;;;;;;5030916;28;20045;-64
2022/04/10 14:22:10;;;;;;;0.50;0.20;;;;;;;;;;5032964;28;20021;-65
2022/04/10 14:24:35;;;;;;;0.90;0.20;;;;;;;;;;5056695;28;20057;-65
2022/04/10 14:27:00;;;;;;;1.92;0.50;;;;;;;;;;5067105;28;20056;-64
2022/04/10 14:29:26;;;;;;;0.95;0.10;;;;;;;;;;5035042;28;20509;-63
2022/04/10 14:31:51;;;;;;;0.40;0.17;;;;;;;;;;5046293;28;20021;-64
2022/04/10 14:34:19;;;;;;;0.80;0.17;;;;;;;;;;5050583;28;20096;-63
2022/04/10 14:36:44;;;;;;;3.28;0.17;;;;;;;;;;5056762;28;20033;-63
2022/04/10 14:39:09;;;;;;;0.77;0.10;;;;;;;;;;5052426;28;20032;-64
2022/04/10 14:41:34;;;;;;;0.95;0.30;;;;;;;;;;5054294;28;20507;-63
2022/04/10 14:44:00;;;;;;;1.48;0.30;;;;;;;;;;5052937;28;20029;-64